Time;durP1;ratioP1;P1;durP2;ratioP2;P2;SDS_P1;SDS_P2;PMS_P1;PMS_P2;Temp;Humidity;BMP_temperature;BMP_pressure;BME280_temperature;BME280_humidity;BME280_pressure;Samples;Min_cycle;Max_cycle;Signal;HPM_P1;HPM_P2
2023/10/27 00:00:05;;;;;;;41.20;22.08;;;;;;;;;;5143109;27;20082;-57
2023/10/27 00:02:36;;;;;;;43.15;23.30;;;;;;;;;;5138650;27;20603;-58
2023/10/27 00:05:03;;;;;;;44.60;21.98;;;;;;;;;;5141740;27;20058;-57
2023/10/27 00:07:30;;;;;;;39.58;22.23;;;;;;;;;;5143921;27;20047;-58
2023/10/27 00:09:56;;;;;;;39.08;21.58;;;;;;;;;;5135065;27;20047;-56
2023/10/27 00:12:22;;;;;;;45.97;23.38;;;;;;;;;;5143599;27;20055;-57
2023/10/27 00:14:49;;;;;;;43.55;24.17;;;;;;;;;;5127503;27;20154;-58
2023/10/27 00:17:15;;;;;;;49.75;23.02;;;;;;;;;;5125554;27;20136;-57
2023/10/27 00:19:42;;;;;;;45.08;23.98;;;;;;;;;;5138419;27;20061;-57
2023/10/27 00:22:09;;;;;;;44.60;21.90;;;;;;;;;;5125650;27;20398;-56
2023/10/27 00:24:35;;;;;;;47.05;23.25;;;;;;;;;;5124320;27;20573;-58
2023/10/27 00:27:02;;;;;;;41.20;22.35;;;;;;;;;;5141269;27;20128;-56
2023/10/27 00:29:28;;;;;;;45.72;23.63;;;;;;;;;;5133547;27;20212;-57
2023/10/27 00:31:54;;;;;;;47.38;24.40;;;;;;;;;;5126494;27;20055;-57
2023/10/27 00:34:21;;;;;;;46.30;22.38;;;;;;;;;;5143531;27;20052;-54
2023/10/27 00:36:47;;;;;;;51.58;25.55;;;;;;;;;;5125589;27;20136;-58
2023/10/27 00:39:14;;;;;;;49.72;24.10;;;;;;;;;;5129380;27;20210;-58
2023/10/27 00:41:40;;;;;;;48.47;24.35;;;;;;;;;;5122344;27;20054;-57
2023/10/27 00:44:07;;;;;;;51.95;25.05;;;;;;;;;;5123333;27;20051;-58
2023/10/27 00:46:33;;;;;;;55.72;26.02;;;;;;;;;;5143324;27;20082;-57
2023/10/27 00:49:00;;;;;;;50.38;24.50;;;;;;;;;;5125897;27;20065;-57
2023/10/27 00:51:26;;;;;;;51.10;25.52;;;;;;;;;;5130342;27;20505;-57
2023/10/27 00:53:53;;;;;;;50.63;25.10;;;;;;;;;;5141617;27;20605;-55
2023/10/27 00:56:20;;;;;;;52.13;25.95;;;;;;;;;;5122740;27;20051;-57
2023/10/27 00:58:46;;;;;;;52.13;25.52;;;;;;;;;;5123369;27;20555;-58
2023/10/27 01:01:15;;;;;;;47.55;25.33;;;;;;;;;;5122466;27;20048;-58
2023/10/27 01:03:42;;;;;;;51.80;24.75;;;;;;;;;;5123680;27;20470;-57
2023/10/27 01:06:08;;;;;;;48.95;25.13;;;;;;;;;;5125770;27;20183;-56
2023/10/27 01:08:35;;;;;;;54.03;25.85;;;;;;;;;;5142989;27;20059;-58
2023/10/27 01:11:02;;;;;;;50.00;24.98;;;;;;;;;;5138124;27;20051;-52
2023/10/27 01:13:28;;;;;;;49.75;25.35;;;;;;;;;;5140183;27;20534;-55
2023/10/27 01:15:55;;;;;;;49.05;24.98;;;;;;;;;;5139679;27;20528;-57
2023/10/27 01:18:21;;;;;;;49.22;25.20;;;;;;;;;;5126048;27;20051;-55
2023/10/27 01:20:48;;;;;;;47.30;24.10;;;;;;;;;;5139608;27;20146;-57
2023/10/27 01:23:14;;;;;;;46.22;24.48;;;;;;;;;;5145439;27;20078;-57
2023/10/27 01:25:40;;;;;;;50.97;26.10;;;;;;;;;;5144623;27;20058;-57
2023/10/27 01:28:08;;;;;;;58.30;27.00;;;;;;;;;;5126772;27;20525;-56
2023/10/27 01:30:35;;;;;;;48.85;25.65;;;;;;;;;;5142110;27;20544;-55
2023/10/27 01:33:01;;;;;;;51.78;25.00;;;;;;;;;;5124863;27;20541;-54
2023/10/27 01:35:28;;;;;;;52.00;25.45;;;;;;;;;;5129796;27;20055;-57
2023/10/27 01:37:54;;;;;;;51.90;25.73;;;;;;;;;;5147064;27;20055;-57
2023/10/27 01:40:21;;;;;;;49.80;25.45;;;;;;;;;;5127463;27;20079;-57
2023/10/27 01:42:47;;;;;;;56.08;26.58;;;;;;;;;;5137406;27;20424;-58
2023/10/27 01:45:14;;;;;;;53.95;26.10;;;;;;;;;;5146050;27;20078;-55
2023/10/27 01:47:40;;;;;;;51.20;25.85;;;;;;;;;;5146597;27;20506;-58
2023/10/27 01:50:07;;;;;;;51.28;25.92;;;;;;;;;;5125893;27;20063;-58
2023/10/27 01:52:33;;;;;;;52.00;25.05;;;;;;;;;;5139981;27;20053;-58
2023/10/27 01:54:59;;;;;;;52.30;26.13;;;;;;;;;;5137465;27;20058;-58
2023/10/27 01:57:26;;;;;;;55.88;26.27;;;;;;;;;;5144407;27;20059;-57
2023/10/27 01:59:52;;;;;;;49.65;26.42;;;;;;;;;;5132766;27;20047;-54
2023/10/27 02:02:19;;;;;;;49.67;25.50;;;;;;;;;;5125045;27;20502;-56
2023/10/27 02:04:46;;;;;;;51.80;26.55;;;;;;;;;;5125828;27;20117;-58
2023/10/27 02:07:12;;;;;;;51.95;26.02;;;;;;;;;;5128825;27;20104;-58
2023/10/27 02:09:39;;;;;;;55.40;25.05;;;;;;;;;;5146542;27;20061;-57
2023/10/27 02:12:07;;;;;;;55.42;27.23;;;;;;;;;;5127212;27;20545;-57
2023/10/27 02:14:34;;;;;;;53.20;26.98;;;;;;;;;;5142601;27;20770;-58
2023/10/27 02:17:00;;;;;;;56.90;27.65;;;;;;;;;;5144693;27;20061;-56
2023/10/27 02:19:27;;;;;;;55.75;27.23;;;;;;;;;;5139681;27;20044;-58
2023/10/27 02:21:53;;;;;;;62.45;28.15;;;;;;;;;;5125725;27;20166;-56
2023/10/27 02:24:20;;;;;;;62.05;28.77;;;;;;;;;;5124441;27;20048;-58
2023/10/27 02:26:46;;;;;;;58.58;28.13;;;;;;;;;;5125168;27;20059;-56
2023/10/27 02:29:13;;;;;;;53.58;26.83;;;;;;;;;;5129003;27;20051;-56
2023/10/27 02:31:40;;;;;;;59.97;28.10;;;;;;;;;;5125600;27;20087;-55
2023/10/27 02:34:07;;;;;;;51.67;27.38;;;;;;;;;;5139481;27;20062;-54
2023/10/27 02:36:33;;;;;;;66.78;29.05;;;;;;;;;;5145670;27;20493;-58
2023/10/27 02:39:00;;;;;;;60.78;27.77;;;;;;;;;;5136965;27;20120;-57
2023/10/27 02:41:27;;;;;;;63.63;27.45;;;;;;;;;;5146209;27;20544;-56
2023/10/27 02:43:53;;;;;;;61.58;27.35;;;;;;;;;;5134814;27;20085;-54
2023/10/27 02:46:20;;;;;;;66.57;28.58;;;;;;;;;;5142373;27;20051;-55
2023/10/27 02:48:46;;;;;;;55.10;27.27;;;;;;;;;;5120209;27;20059;-57
2023/10/27 02:51:14;;;;;;;62.22;27.00;;;;;;;;;;5124729;27;20056;-57
2023/10/27 02:53:41;;;;;;;56.63;27.45;;;;;;;;;;5131735;27;20569;-57
2023/10/27 02:56:08;;;;;;;51.85;25.58;;;;;;;;;;5130471;27;20503;-57
2023/10/27 02:58:35;;;;;;;54.42;24.63;;;;;;;;;;5124890;27;20540;-59
2023/10/27 03:01:08;;;;;;;57.58;26.10;;;;;;;;;;5139233;27;20062;-55
2023/10/27 03:03:37;;;;;;;51.35;25.48;;;;;;;;;;5125766;27;20438;-59
2023/10/27 03:06:03;;;;;;;59.70;26.08;;;;;;;;;;5142866;27;20224;-57
2023/10/27 03:08:31;;;;;;;53.35;26.80;;;;;;;;;;5144649;27;20491;-56
2023/10/27 03:10:57;;;;;;;51.47;24.00;;;;;;;;;;5144587;27;20059;-57
2023/10/27 03:13:24;;;;;;;55.67;25.23;;;;;;;;;;5144338;27;20057;-58
2023/10/27 03:15:50;;;;;;;64.88;25.75;;;;;;;;;;5144765;27;20055;-55
2023/10/27 03:18:16;;;;;;;54.90;23.65;;;;;;;;;;5130666;27;20079;-58
2023/10/27 03:20:43;;;;;;;52.15;23.90;;;;;;;;;;5137211;27;20138;-57
2023/10/27 03:23:09;;;;;;;54.85;24.08;;;;;;;;;;5144628;27;20436;-58
2023/10/27 03:25:36;;;;;;;55.35;24.33;;;;;;;;;;5145429;27;20054;-58
2023/10/27 03:28:02;;;;;;;68.93;25.02;;;;;;;;;;5127421;27;20108;-56
2023/10/27 03:30:29;;;;;;;49.17;22.73;;;;;;;;;;5108904;27;20055;-58
2023/10/27 03:32:55;;;;;;;53.58;23.40;;;;;;;;;;5143087;27;20056;-57
2023/10/27 03:35:22;;;;;;;47.45;22.17;;;;;;;;;;5144950;27;20055;-55
2023/10/27 03:37:48;;;;;;;47.22;22.52;;;;;;;;;;5126302;27;20164;-57
2023/10/27 03:40:15;;;;;;;49.95;21.65;;;;;;;;;;5138955;27;20193;-55
2023/10/27 03:42:41;;;;;;;48.28;21.52;;;;;;;;;;5138276;27;20506;-59
2023/10/27 03:45:08;;;;;;;48.13;21.15;;;;;;;;;;5125038;27;20132;-58
2023/10/27 03:47:34;;;;;;;46.40;21.20;;;;;;;;;;5144255;27;20104;-58
2023/10/27 03:50:01;;;;;;;49.35;20.73;;;;;;;;;;5134645;27;20096;-55
2023/10/27 03:52:27;;;;;;;45.83;21.02;;;;;;;;;;5131329;27;20100;-57
2023/10/27 03:54:53;;;;;;;46.10;19.63;;;;;;;;;;5143308;27;20047;-56
2023/10/27 03:57:20;;;;;;;43.22;18.52;;;;;;;;;;5123005;27;20055;-56
2023/10/27 03:59:46;;;;;;;41.42;18.65;;;;;;;;;;5138289;27;20055;-56
2023/10/27 04:02:15;;;;;;;45.00;19.10;;;;;;;;;;5134260;27;20138;-57
2023/10/27 04:04:42;;;;;;;42.75;18.83;;;;;;;;;;5123424;27;20043;-58
2023/10/27 04:07:08;;;;;;;45.67;18.58;;;;;;;;;;5125825;27;20062;-55
2023/10/27 04:09:35;;;;;;;42.53;18.75;;;;;;;;;;5142252;27;20089;-55
2023/10/27 04:12:01;;;;;;;41.15;18.38;;;;;;;;;;5136641;27;20062;-56
2023/10/27 04:14:27;;;;;;;38.78;16.52;;;;;;;;;;5123279;27;20057;-54
2023/10/27 04:16:54;;;;;;;48.38;18.67;;;;;;;;;;5123997;27;20499;-56
2023/10/27 04:19:20;;;;;;;43.80;18.27;;;;;;;;;;5123350;27;20575;-54
2023/10/27 04:21:46;;;;;;;42.95;16.25;;;;;;;;;;5136610;27;20054;-57
2023/10/27 04:24:13;;;;;;;45.17;17.48;;;;;;;;;;5142342;27;20058;-57
2023/10/27 04:26:39;;;;;;;39.85;17.77;;;;;;;;;;5142088;27;20047;-57
2023/10/27 04:29:06;;;;;;;33.72;15.73;;;;;;;;;;5141672;27;20057;-57
2023/10/27 04:31:33;;;;;;;37.08;15.55;;;;;;;;;;5137831;27;20516;-57
2023/10/27 04:33:59;;;;;;;42.17;16.60;;;;;;;;;;5143367;27;20512;-55
2023/10/27 04:36:26;;;;;;;39.35;16.20;;;;;;;;;;5143811;27;20086;-56
2023/10/27 04:38:52;;;;;;;36.67;14.75;;;;;;;;;;5144121;27;20050;-57
2023/10/27 04:41:19;;;;;;;31.95;14.35;;;;;;;;;;5140310;27;20480;-56
2023/10/27 04:43:45;;;;;;;32.35;14.95;;;;;;;;;;5132242;27;20075;-58
2023/10/27 04:46:11;;;;;;;37.22;15.15;;;;;;;;;;5122752;27;20059;-57
2023/10/27 04:48:38;;;;;;;32.95;14.00;;;;;;;;;;5130934;27;20074;-55
2023/10/27 04:51:05;;;;;;;32.30;14.40;;;;;;;;;;5104613;27;20054;-57
2023/10/27 04:53:32;;;;;;;32.03;14.07;;;;;;;;;;5122907;27;20614;-58
2023/10/27 04:55:58;;;;;;;29.02;14.10;;;;;;;;;;5129346;27;20051;-58
2023/10/27 04:58:24;;;;;;;34.22;14.43;;;;;;;;;;5142027;27;20055;-57
2023/10/27 05:00:51;;;;;;;28.55;13.02;;;;;;;;;;5127986;27;20055;-58
2023/10/27 05:03:17;;;;;;;26.08;12.40;;;;;;;;;;5126480;27;20507;-57
2023/10/27 05:05:44;;;;;;;27.38;13.75;;;;;;;;;;5139895;27;20550;-56
2023/10/27 05:08:11;;;;;;;32.63;14.10;;;;;;;;;;5133229;27;20155;-56
2023/10/27 05:10:40;;;;;;;26.70;12.70;;;;;;;;;;5139157;27;20053;-58
2023/10/27 05:13:07;;;;;;;29.52;13.32;;;;;;;;;;5138112;27;20493;-56
2023/10/27 05:15:33;;;;;;;28.77;12.75;;;;;;;;;;5131146;27;20081;-58
2023/10/27 05:18:05;;;;;;;29.05;12.07;;;;;;;;;;5133640;27;20058;-56
2023/10/27 05:20:35;;;;;;;26.73;12.68;;;;;;;;;;5122678;27;20047;-56
2023/10/27 05:23:01;;;;;;;28.30;13.15;;;;;;;;;;5122703;27;20606;-56
2023/10/27 05:25:28;;;;;;;31.08;12.02;;;;;;;;;;5122251;27;20044;-56
2023/10/27 05:27:54;;;;;;;25.80;11.60;;;;;;;;;;5130666;27;20138;-55
2023/10/27 05:30:21;;;;;;;31.92;13.35;;;;;;;;;;5137506;27;20661;-56
2023/10/27 05:32:47;;;;;;;30.13;12.60;;;;;;;;;;5129858;27;20577;-58
2023/10/27 05:35:14;;;;;;;29.30;12.25;;;;;;;;;;5138951;27;20051;-57
2023/10/27 05:37:40;;;;;;;25.35;11.18;;;;;;;;;;5131752;27;20113;-57
2023/10/27 05:40:07;;;;;;;29.65;12.48;;;;;;;;;;5141311;27;20062;-57
2023/10/27 05:42:33;;;;;;;26.27;11.10;;;;;;;;;;5143843;27;20078;-57
2023/10/27 05:45:00;;;;;;;28.13;11.15;;;;;;;;;;5124478;27;20047;-56
2023/10/27 05:47:26;;;;;;;27.15;11.20;;;;;;;;;;5130164;27;20051;-57
2023/10/27 05:49:54;;;;;;;27.27;12.55;;;;;;;;;;5135082;27;20097;-56
2023/10/27 05:52:21;;;;;;;27.42;11.93;;;;;;;;;;5142253;27;20523;-57
2023/10/27 05:54:47;;;;;;;29.17;11.13;;;;;;;;;;5146692;27;20058;-57
2023/10/27 05:57:14;;;;;;;24.02;12.55;;;;;;;;;;5130661;27;20737;-59
2023/10/27 05:59:41;;;;;;;21.38;10.68;;;;;;;;;;5134379;27;20105;-57
2023/10/27 06:02:07;;;;;;;27.83;10.73;;;;;;;;;;5125367;27;20083;-55
2023/10/27 06:04:41;;;;;;;19.05;10.23;;;;;;;;;;5127560;27;20174;-57
2023/10/27 06:07:08;;;;;;;17.95;9.52;;;;;;;;;;5138785;27;20066;-57
2023/10/27 06:09:35;;;;;;;20.55;10.23;;;;;;;;;;5145358;27;20086;-57
2023/10/27 06:12:02;;;;;;;19.25;9.55;;;;;;;;;;5144851;27;20094;-57
2023/10/27 06:14:28;;;;;;;21.67;9.82;;;;;;;;;;5146395;27;20055;-58
2023/10/27 06:16:55;;;;;;;17.77;9.30;;;;;;;;;;5125421;27;20050;-55
2023/10/27 06:19:22;;;;;;;18.23;9.68;;;;;;;;;;5142962;27;20058;-57
2023/10/27 06:21:49;;;;;;;19.42;9.43;;;;;;;;;;5139828;27;20060;-56
2023/10/27 06:24:15;;;;;;;20.55;10.82;;;;;;;;;;5144136;27;20048;-57
2023/10/27 06:26:41;;;;;;;19.83;9.25;;;;;;;;;;5143637;27;20055;-55
2023/10/27 06:29:08;;;;;;;23.80;10.63;;;;;;;;;;5120945;27;20059;-56
2023/10/27 06:31:34;;;;;;;16.75;8.93;;;;;;;;;;5132904;27;20055;-55
2023/10/27 06:34:01;;;;;;;18.25;9.88;;;;;;;;;;5141543;27;20147;-56
2023/10/27 06:36:30;;;;;;;19.85;9.65;;;;;;;;;;5130046;27;20043;-55
2023/10/27 06:38:56;;;;;;;16.80;8.90;;;;;;;;;;5144415;27;20055;-57
2023/10/27 06:41:22;;;;;;;16.02;9.25;;;;;;;;;;5139734;27;20078;-56
2023/10/27 06:43:49;;;;;;;17.15;9.68;;;;;;;;;;5139669;27;20058;-54
2023/10/27 06:46:15;;;;;;;15.57;9.05;;;;;;;;;;5142401;27;20050;-56
2023/10/27 06:48:42;;;;;;;19.70;9.10;;;;;;;;;;5124796;27;20055;-56
2023/10/27 06:51:08;;;;;;;15.02;8.48;;;;;;;;;;5138257;27;20694;-55
2023/10/27 06:53:35;;;;;;;16.52;9.05;;;;;;;;;;5144986;27;20062;-58
2023/10/27 06:56:01;;;;;;;18.80;9.20;;;;;;;;;;5144302;27;20082;-57
2023/10/27 06:58:31;;;;;;;17.77;8.30;;;;;;;;;;5145371;27;20051;-56
2023/10/27 07:01:03;;;;;;;17.88;8.63;;;;;;;;;;5128370;27;20138;-56
2023/10/27 07:03:30;;;;;;;14.55;8.10;;;;;;;;;;5137136;27;20063;-58
2023/10/27 07:05:57;;;;;;;14.07;8.20;;;;;;;;;;5140238;27;20059;-57
2023/10/27 07:08:24;;;;;;;13.82;7.97;;;;;;;;;;5145316;27;20654;-57
2023/10/27 07:10:54;;;;;;;12.57;7.90;;;;;;;;;;5133639;27;20139;-58
2023/10/27 07:13:20;;;;;;;13.80;7.88;;;;;;;;;;5124829;27;20101;-57
2023/10/27 07:15:47;;;;;;;16.55;8.63;;;;;;;;;;5135234;27;20456;-55
2023/10/27 07:18:13;;;;;;;14.43;8.63;;;;;;;;;;5124498;27;20062;-58
2023/10/27 07:20:39;;;;;;;13.43;7.53;;;;;;;;;;5123553;27;20067;-56
2023/10/27 07:23:06;;;;;;;15.18;8.15;;;;;;;;;;5139474;27;20062;-57
2023/10/27 07:25:32;;;;;;;13.00;7.80;;;;;;;;;;5133625;27;20087;-57
2023/10/27 07:27:59;;;;;;;13.90;8.05;;;;;;;;;;5142073;27;20051;-57
2023/10/27 07:30:26;;;;;;;11.68;7.45;;;;;;;;;;5131238;27;20054;-55
2023/10/27 07:32:52;;;;;;;17.00;8.82;;;;;;;;;;5139974;27;20582;-56
2023/10/27 07:35:19;;;;;;;13.35;7.85;;;;;;;;;;5144151;27;20062;-57
2023/10/27 07:37:45;;;;;;;18.75;8.90;;;;;;;;;;5144497;27;20208;-57
2023/10/27 07:40:11;;;;;;;13.50;8.20;;;;;;;;;;5139203;27;20055;-57
2023/10/27 07:42:38;;;;;;;13.18;7.97;;;;;;;;;;5142127;27;20055;-55
2023/10/27 07:45:05;;;;;;;13.77;8.00;;;;;;;;;;5130435;27;20052;-57
2023/10/27 07:47:31;;;;;;;12.63;6.90;;;;;;;;;;5132464;27;20083;-58
2023/10/27 07:50:00;;;;;;;11.88;7.07;;;;;;;;;;5143463;27;20433;-57
2023/10/27 07:52:27;;;;;;;13.20;7.82;;;;;;;;;;5124181;27;20117;-56
2023/10/27 07:54:54;;;;;;;15.18;8.45;;;;;;;;;;5123732;27;20170;-55
2023/10/27 07:57:21;;;;;;;11.43;7.35;;;;;;;;;;5123151;27;20555;-56
2023/10/27 07:59:48;;;;;;;18.83;8.68;;;;;;;;;;5126818;27;20058;-57
2023/10/27 08:02:14;;;;;;;12.85;7.53;;;;;;;;;;5144337;27;20059;-57
2023/10/27 08:04:41;;;;;;;12.82;7.68;;;;;;;;;;5143409;27;20055;-56
2023/10/27 08:07:07;;;;;;;12.63;7.65;;;;;;;;;;5142156;27;20051;-58
2023/10/27 08:09:38;;;;;;;11.93;7.40;;;;;;;;;;5143350;27;20067;-58
2023/10/27 08:12:06;;;;;;;11.60;7.65;;;;;;;;;;5144154;27;20061;-57
2023/10/27 08:14:36;;;;;;;11.35;6.72;;;;;;;;;;5123716;27;20052;-57
2023/10/27 08:17:02;;;;;;;15.75;8.00;;;;;;;;;;5137932;27;20047;-56
2023/10/27 08:19:29;;;;;;;12.63;7.63;;;;;;;;;;5134934;27;20056;-57
2023/10/27 08:21:55;;;;;;;13.18;8.00;;;;;;;;;;5135596;27;20051;-56
2023/10/27 08:24:21;;;;;;;11.95;7.97;;;;;;;;;;5123956;27;20052;-58
2023/10/27 08:26:48;;;;;;;10.60;6.80;;;;;;;;;;5123417;27;20063;-57
2023/10/27 08:29:14;;;;;;;12.32;8.00;;;;;;;;;;5123834;27;20492;-55
2023/10/27 08:31:40;;;;;;;13.20;8.05;;;;;;;;;;5122768;27;20048;-56
2023/10/27 08:34:10;;;;;;;13.85;8.38;;;;;;;;;;5122894;27;20512;-58
2023/10/27 08:36:38;;;;;;;11.13;6.95;;;;;;;;;;5142302;27;20097;-58
2023/10/27 08:39:06;;;;;;;11.82;7.13;;;;;;;;;;5131227;27;20087;-58
2023/10/27 08:41:33;;;;;;;12.35;7.45;;;;;;;;;;5122344;27;20121;-58
2023/10/27 08:43:59;;;;;;;13.27;8.48;;;;;;;;;;5123143;27;20434;-57
2023/10/27 08:46:47;;;;;;;14.30;7.78;;;;;;;;;;5107825;27;20055;-57
2023/10/27 08:49:14;;;;;;;12.57;7.88;;;;;;;;;;5141035;27;20185;-56
2023/10/27 08:51:40;;;;;;;14.02;7.47;;;;;;;;;;5112014;27;20055;-55
2023/10/27 08:54:07;;;;;;;15.98;7.95;;;;;;;;;;5138901;27;20198;-45
2023/10/27 08:56:37;;;;;;;14.07;6.80;;;;;;;;;;5142872;27;20055;-58
2023/10/27 08:59:09;;;;;;;9.65;6.60;;;;;;;;;;5123325;27;20490;-55
2023/10/27 09:01:36;;;;;;;9.27;6.55;;;;;;;;;;5122469;27;20152;-57
2023/10/27 09:04:06;;;;;;;12.50;7.38;;;;;;;;;;5122501;27;20440;-58
2023/10/27 09:06:34;;;;;;;12.98;7.13;;;;;;;;;;5132147;27;20134;-57
2023/10/27 09:09:00;;;;;;;13.85;7.43;;;;;;;;;;5137247;27;20047;-58
2023/10/27 09:11:26;;;;;;;14.68;7.43;;;;;;;;;;5137140;27;20051;-57
2023/10/27 09:13:53;;;;;;;14.55;7.50;;;;;;;;;;5138132;27;20135;-55
2023/10/27 09:16:25;;;;;;;9.45;6.95;;;;;;;;;;5140431;27;20147;-57
2023/10/27 09:18:52;;;;;;;10.80;6.90;;;;;;;;;;5122577;27;20051;-55
2023/10/27 09:21:32;;;;;;;10.07;6.50;;;;;;;;;;5133481;27;20151;-56
2023/10/27 09:23:59;;;;;;;10.07;7.07;;;;;;;;;;5139378;27;20079;-56
2023/10/27 09:26:28;;;;;;;10.40;6.90;;;;;;;;;;5133332;27;20593;-55
2023/10/27 09:29:03;;;;;;;21.00;7.13;;;;;;;;;;5130128;27;20058;-57
2023/10/27 09:31:34;;;;;;;9.50;6.97;;;;;;;;;;5146150;27;20055;-57
2023/10/27 09:34:17;;;;;;;10.77;6.60;;;;;;;;;;5127873;27;20047;-57
2023/10/27 09:36:45;;;;;;;11.00;6.45;;;;;;;;;;5129405;27;20050;-56
2023/10/27 09:39:16;;;;;;;10.95;6.88;;;;;;;;;;5142866;27;20051;-57
2023/10/27 09:41:47;;;;;;;8.85;6.65;;;;;;;;;;5140327;27;20525;-58
2023/10/27 09:44:15;;;;;;;9.65;6.65;;;;;;;;;;5126784;27;20133;-56
2023/10/27 09:46:44;;;;;;;9.05;6.07;;;;;;;;;;5146680;27;20524;-56
2023/10/27 09:49:12;;;;;;;8.73;6.18;;;;;;;;;;5131164;27;20136;-56
2023/10/27 09:51:42;;;;;;;9.57;6.72;;;;;;;;;;5125814;27;20052;-56
2023/10/27 09:54:09;;;;;;;9.55;6.53;;;;;;;;;;5142588;27;20586;-56
2023/10/27 09:56:35;;;;;;;10.27;6.80;;;;;;;;;;5126496;27;20048;-57
2023/10/27 09:59:02;;;;;;;10.52;6.35;;;;;;;;;;5142240;27;20058;-57
2023/10/27 10:01:28;;;;;;;9.05;5.50;;;;;;;;;;5141729;27;20135;-57
2023/10/27 10:03:55;;;;;;;8.45;5.68;;;;;;;;;;5145459;27;20488;-55
2023/10/27 10:06:23;;;;;;;7.85;5.55;;;;;;;;;;5146244;27;20509;-56
2023/10/27 10:09:10;;;;;;;7.45;5.10;;;;;;;;;;5132473;27;20638;-54
2023/10/27 10:11:53;;;;;;;8.88;5.95;;;;;;;;;;5141828;27;20051;-54
2023/10/27 10:14:39;;;;;;;9.50;4.90;;;;;;;;;;5142744;27;20096;-56
2023/10/27 10:17:06;;;;;;;7.07;4.88;;;;;;;;;;5145464;27;20126;-57
2023/10/27 10:19:48;;;;;;;7.60;4.70;;;;;;;;;;5142574;27;20847;-54
2023/10/27 10:22:34;;;;;;;7.75;5.22;;;;;;;;;;5140646;27;20055;-58
2023/10/27 10:25:19;;;;;;;7.72;5.55;;;;;;;;;;5133724;27;20081;-55
2023/10/27 10:28:04;;;;;;;6.82;5.32;;;;;;;;;;5125141;27;20051;-56
2023/10/27 10:30:31;;;;;;;7.05;4.90;;;;;;;;;;5140158;27;20452;-55
2023/10/27 10:33:15;;;;;;;8.25;5.38;;;;;;;;;;5144369;27;20059;-57
2023/10/27 10:35:43;;;;;;;5.93;4.50;;;;;;;;;;5145452;27;20057;-56
2023/10/27 10:38:21;;;;;;;6.18;4.10;;;;;;;;;;5145010;27;20289;-54
2023/10/27 10:40:55;;;;;;;6.18;4.53;;;;;;;;;;5146095;27;20142;-55
2023/10/27 10:43:36;;;;;;;6.63;4.70;;;;;;;;;;5128059;27;20063;-56
2023/10/27 10:46:04;;;;;;;7.85;4.45;;;;;;;;;;5136123;27;20051;-57
2023/10/27 10:48:31;;;;;;;8.48;4.70;;;;;;;;;;5139860;27;20522;-57
2023/10/27 10:53:53;;;;;;;5.72;4.25;;;;;;;;;;5145108;27;20039;-56
2023/10/27 10:56:19;;;;;;;8.32;4.25;;;;;;;;;;5144025;27;20131;-56
2023/10/27 10:58:46;;;;;;;6.07;4.55;;;;;;;;;;5132128;27;20118;-55
2023/10/27 11:01:17;;;;;;;7.30;4.45;;;;;;;;;;5125046;27;20055;-58
2023/10/27 11:03:51;;;;;;;9.50;4.85;;;;;;;;;;5124377;27;20051;-54
2023/10/27 11:06:18;;;;;;;4.72;4.22;;;;;;;;;;5124989;27;20525;-56
2023/10/27 11:08:45;;;;;;;5.13;4.40;;;;;;;;;;5125781;27;20498;-54
2023/10/27 11:11:18;;;;;;;6.28;4.88;;;;;;;;;;5137141;27;20055;-57
2023/10/27 11:13:46;;;;;;;7.30;4.88;;;;;;;;;;5140561;27;20051;-57
2023/10/27 11:16:14;;;;;;;6.68;4.97;;;;;;;;;;5128602;27;20146;-56
2023/10/27 11:18:40;;;;;;;6.82;4.63;;;;;;;;;;5139931;27;20485;-55
2023/10/27 11:21:13;;;;;;;6.97;5.03;;;;;;;;;;5133299;27;20535;-56
2023/10/27 11:23:39;;;;;;;7.15;5.07;;;;;;;;;;5136968;27;20048;-56
2023/10/27 11:26:05;;;;;;;7.28;5.15;;;;;;;;;;5123812;27;20052;-57
2023/10/27 11:28:39;;;;;;;8.05;5.13;;;;;;;;;;5124883;27;20104;-57
2023/10/27 11:31:08;;;;;;;8.88;5.22;;;;;;;;;;5135015;27;20062;-57
2023/10/27 11:33:54;;;;;;;6.95;5.07;;;;;;;;;;5133720;27;20492;-57
2023/10/27 11:36:21;;;;;;;7.38;4.65;;;;;;;;;;5131038;27;20051;-56
2023/10/27 11:38:49;;;;;;;7.47;5.47;;;;;;;;;;5138033;27;20090;-56
2023/10/27 11:41:15;;;;;;;6.72;5.00;;;;;;;;;;5123579;27;20051;-57
2023/10/27 11:43:42;;;;;;;7.32;5.18;;;;;;;;;;5123914;27;20715;-58
2023/10/27 11:46:10;;;;;;;7.95;5.38;;;;;;;;;;5129940;27;20048;-56
2023/10/27 11:48:36;;;;;;;8.85;4.90;;;;;;;;;;5139646;27;20085;-56
2023/10/27 11:51:03;;;;;;;5.90;4.82;;;;;;;;;;5124359;27;20076;-57
2023/10/27 11:53:30;;;;;;;7.60;5.50;;;;;;;;;;5124841;27;20153;-57
2023/10/27 11:55:56;;;;;;;6.18;5.30;;;;;;;;;;5123266;27;20516;-53
2023/10/27 11:58:23;;;;;;;7.43;5.40;;;;;;;;;;5123163;27;20601;-57
2023/10/27 12:00:49;;;;;;;7.70;4.95;;;;;;;;;;5124410;27;20044;-55
2023/10/27 12:03:15;;;;;;;7.72;5.55;;;;;;;;;;5143222;27;20050;-58
2023/10/27 12:05:42;;;;;;;8.07;5.28;;;;;;;;;;5141894;27;20043;-57
2023/10/27 12:08:09;;;;;;;6.20;4.82;;;;;;;;;;5137405;27;20588;-56
2023/10/27 12:10:35;;;;;;;7.55;5.38;;;;;;;;;;5123246;27;20147;-56
2023/10/27 12:13:06;;;;;;;13.18;5.90;;;;;;;;;;5140402;27;20449;-56
2023/10/27 12:15:33;;;;;;;7.30;4.85;;;;;;;;;;5144429;27;20051;-57
2023/10/27 12:18:01;;;;;;;7.25;5.38;;;;;;;;;;5133766;27;20051;-57
2023/10/27 12:20:28;;;;;;;6.82;5.05;;;;;;;;;;5122616;27;20056;-57
2023/10/27 12:22:55;;;;;;;6.35;5.22;;;;;;;;;;5124108;27;20071;-59
2023/10/27 12:25:21;;;;;;;8.23;5.18;;;;;;;;;;5141403;27;20532;-58
2023/10/27 12:27:48;;;;;;;7.25;5.15;;;;;;;;;;5142971;27;20451;-58
2023/10/27 12:30:17;;;;;;;8.65;5.75;;;;;;;;;;5134376;27;20055;-58
2023/10/27 12:32:44;;;;;;;8.95;5.88;;;;;;;;;;5143319;27;20055;-57
2023/10/27 12:35:11;;;;;;;7.55;5.40;;;;;;;;;;5105455;27;20055;-58
2023/10/27 12:37:37;;;;;;;7.75;5.50;;;;;;;;;;5122740;27;20056;-57
2023/10/27 12:40:06;;;;;;;8.43;5.40;;;;;;;;;;5136819;27;20128;-59
2023/10/27 12:42:32;;;;;;;6.22;4.82;;;;;;;;;;5131772;27;20143;-59
2023/10/27 12:44:59;;;;;;;8.25;5.78;;;;;;;;;;5123435;27;20128;-59
2023/10/27 12:47:25;;;;;;;6.93;4.90;;;;;;;;;;5125955;27;20052;-59
2023/10/27 12:49:52;;;;;;;7.03;5.43;;;;;;;;;;5133767;27;20077;-59
2023/10/27 12:52:19;;;;;;;6.22;5.22;;;;;;;;;;5137837;27;20058;-59
2023/10/27 12:54:45;;;;;;;5.93;4.97;;;;;;;;;;5122971;27;20068;-59
2023/10/27 12:57:12;;;;;;;7.18;5.50;;;;;;;;;;5122306;27;20527;-59
2023/10/27 12:59:38;;;;;;;6.70;4.85;;;;;;;;;;5135506;27;20609;-59
2023/10/27 13:02:05;;;;;;;7.15;5.00;;;;;;;;;;5124195;27;20058;-59
2023/10/27 13:04:31;;;;;;;6.68;5.00;;;;;;;;;;5126615;27;20060;-59
2023/10/27 13:06:58;;;;;;;5.90;4.68;;;;;;;;;;5126425;27;20056;-59
2023/10/27 13:09:24;;;;;;;5.20;4.50;;;;;;;;;;5140713;27;20566;-56
2023/10/27 13:11:54;;;;;;;7.53;5.32;;;;;;;;;;5128219;27;20056;-59
2023/10/27 13:14:21;;;;;;;7.20;4.70;;;;;;;;;;5126248;27;20051;-59
2023/10/27 13:16:48;;;;;;;7.50;4.80;;;;;;;;;;5127344;27;20056;-60
2023/10/27 13:19:14;;;;;;;5.20;4.57;;;;;;;;;;5143109;27;20048;-59
2023/10/27 13:21:41;;;;;;;8.82;4.97;;;;;;;;;;5133807;27;20055;-59
2023/10/27 13:24:07;;;;;;;6.22;5.10;;;;;;;;;;5125162;27;20120;-57
2023/10/27 13:26:34;;;;;;;5.68;4.75;;;;;;;;;;5127135;27;20089;-59
2023/10/27 13:29:00;;;;;;;6.85;4.40;;;;;;;;;;5130700;27;20055;-59
2023/10/27 13:31:27;;;;;;;6.30;4.57;;;;;;;;;;5132839;27;20055;-59
2023/10/27 13:33:58;;;;;;;5.72;3.97;;;;;;;;;;5125441;27;20056;-59
2023/10/27 13:36:25;;;;;;;6.93;3.95;;;;;;;;;;5129893;27;20246;-59
2023/10/27 13:38:51;;;;;;;5.72;3.95;;;;;;;;;;5126128;27;20109;-59
2023/10/27 13:41:34;;;;;;;6.18;4.25;;;;;;;;;;5126152;27;20063;-59
2023/10/27 13:44:01;;;;;;;5.68;4.50;;;;;;;;;;5133559;27;20052;-58
2023/10/27 13:46:28;;;;;;;5.78;4.10;;;;;;;;;;5125513;27;20055;-59
2023/10/27 13:48:54;;;;;;;6.40;4.05;;;;;;;;;;5129413;27;20060;-60
2023/10/27 13:51:21;;;;;;;8.90;4.47;;;;;;;;;;5144700;27;20051;-59
2023/10/27 13:53:47;;;;;;;6.65;4.75;;;;;;;;;;5146360;27;20059;-59
2023/10/27 13:56:14;;;;;;;5.85;4.53;;;;;;;;;;5134900;27;20059;-59
2023/10/27 13:58:44;;;;;;;6.80;4.55;;;;;;;;;;5144887;27;20058;-59
2023/10/27 14:01:11;;;;;;;5.28;3.92;;;;;;;;;;5146828;27;20055;-59
2023/10/27 14:03:39;;;;;;;5.53;3.70;;;;;;;;;;5143157;27;20597;-61
2023/10/27 14:06:06;;;;;;;5.10;3.33;;;;;;;;;;5145145;27;20079;-59
2023/10/27 14:08:33;;;;;;;4.35;3.40;;;;;;;;;;5143395;27;20058;-59
2023/10/27 14:11:03;;;;;;;5.43;3.75;;;;;;;;;;5124718;27;20140;-59
2023/10/27 14:13:30;;;;;;;4.38;3.75;;;;;;;;;;5138576;27;20165;-59
2023/10/27 14:15:56;;;;;;;7.32;4.10;;;;;;;;;;5132493;27;20056;-57
2023/10/27 14:18:23;;;;;;;5.93;3.85;;;;;;;;;;5131901;27;20529;-59
2023/10/27 14:20:54;;;;;;;3.97;3.45;;;;;;;;;;5144192;27;20065;-57
2023/10/27 14:23:21;;;;;;;6.90;4.18;;;;;;;;;;5141705;27;20574;-59
2023/10/27 14:25:47;;;;;;;5.38;4.28;;;;;;;;;;5145343;27;20108;-57
2023/10/27 14:28:13;;;;;;;8.43;4.65;;;;;;;;;;5136675;27;20052;-59
2023/10/27 14:30:40;;;;;;;7.75;4.15;;;;;;;;;;5125048;27;20047;-59
2023/10/27 14:33:07;;;;;;;5.55;3.47;;;;;;;;;;5131505;27;20087;-59